createdAt,value
2018-04-29T00:02:13.168Z,95250
2018-04-29T00:04:42.200Z,95258
2018-04-29T00:07:11.231Z,95163
2018-04-29T00:09:40.286Z,95265
2018-04-29T00:12:09.564Z,95265
2018-04-29T00:14:38.671Z,95277
2018-04-29T00:17:07.720Z,95283
2018-04-29T00:19:36.735Z,95281
2018-04-29T00:22:05.791Z,95285
2018-04-29T00:24:35.110Z,95278
2018-04-29T00:27:04.752Z,95291
2018-04-29T00:29:34.165Z,95293
2018-04-29T00:32:04.660Z,95279
2018-04-29T00:34:33.681Z,95290
2018-04-29T00:37:02.850Z,95285
2018-04-29T00:39:31.876Z,95281
2018-04-29T00:42:00.931Z,95280
2018-04-29T00:44:30.624Z,95285
2018-04-29T00:46:59.639Z,95276
2018-04-29T00:49:28.706Z,95271
2018-04-29T00:52:06.267Z,95271
2018-04-29T00:54:35.306Z,95273
2018-04-29T00:57:04.342Z,95284
2018-04-29T00:59:33.347Z,95271
2018-04-29T01:02:02.395Z,95271
2018-04-29T01:04:31.401Z,95254
2018-04-29T01:07:00.455Z,95253
2018-04-29T01:09:29.468Z,95250
2018-04-29T01:11:58.495Z,95250
2018-04-29T01:14:27.571Z,95234
2018-04-29T01:16:56.578Z,95235
2018-04-29T01:19:25.600Z,95230
2018-04-29T01:21:54.666Z,95229
2018-04-29T01:24:23.665Z,95222
2018-04-29T01:26:52.666Z,95229
2018-04-29T01:29:21.706Z,95232
2018-04-29T01:31:50.736Z,95222
2018-04-29T01:34:19.779Z,95227
2018-04-29T01:36:48.829Z,95215
2018-04-29T01:39:17.872Z,95212
2018-04-29T01:41:46.883Z,95217
2018-04-29T01:44:16.747Z,95209
2018-04-29T01:46:45.700Z,95191
2018-04-29T01:49:15.470Z,95196
2018-04-29T01:51:44.596Z,95193
2018-04-29T01:54:13.572Z,95198
2018-04-29T01:56:42.587Z,95097
2018-04-29T01:59:11.636Z,95189
2018-04-29T02:01:40.655Z,95188
2018-04-29T02:04:10.460Z,95188
2018-04-29T02:06:39.463Z,95178
2018-04-29T02:09:09.267Z,95177
2018-04-29T02:11:38.276Z,95177
2018-04-29T02:14:08.084Z,95171
2018-04-29T02:16:37.868Z,95166
2018-04-29T02:19:06.919Z,95161
2018-04-29T02:21:35.939Z,95159
2018-04-29T02:24:04.995Z,95157
2018-04-29T02:26:34.025Z,95143
2018-04-29T02:29:03.083Z,95144
2018-04-29T02:31:32.123Z,95146
2018-04-29T02:34:01.167Z,95144
2018-04-29T02:36:30.197Z,95144
2018-04-29T02:38:59.246Z,95148
2018-04-29T02:41:28.255Z,95140
2018-04-29T02:43:57.315Z,95145
2018-04-29T02:46:27.096Z,95134
2018-04-29T02:48:56.119Z,95132
2018-04-29T02:51:25.953Z,95131
2018-04-29T02:53:54.991Z,95131
2018-04-29T02:56:24.019Z,95122
2018-04-29T02:58:53.099Z,95125
2018-04-29T03:01:22.144Z,95132
2018-04-29T03:03:51.184Z,95127
2018-04-29T03:06:20.244Z,95109
2018-04-29T03:08:49.291Z,95112
2018-04-29T03:11:19.068Z,95110
2018-04-29T03:13:48.132Z,95112
2018-04-29T03:16:17.159Z,95098
2018-04-29T03:18:46.212Z,95109
2018-04-29T03:21:15.223Z,95092
2018-04-29T03:23:44.274Z,95087
2018-04-29T03:26:13.289Z,95087
2018-04-29T03:28:42.339Z,95090
2018-04-29T03:31:11.360Z,95079
2018-04-29T03:33:40.399Z,95083
2018-04-29T03:36:09.421Z,95083
2018-04-29T03:38:38.470Z,95089
2018-04-29T03:41:07.487Z,95080
2018-04-29T03:43:36.529Z,95073
2018-04-29T03:46:05.547Z,95070
2018-04-29T03:48:34.617Z,95066
2018-04-29T03:51:03.645Z,95064
2018-04-29T03:53:32.663Z,95064
2018-04-29T03:56:01.715Z,95065
2018-04-29T03:58:48.495Z,95062
2018-04-29T04:01:35.887Z,95075
2018-04-29T04:04:04.940Z,95071
2018-04-29T04:06:33.949Z,95066
2018-04-29T04:09:02.995Z,95070
2018-04-29T04:11:32.044Z,95057
2018-04-29T04:14:01.065Z,95075
2018-04-29T04:16:30.105Z,95084
2018-04-29T04:18:59.139Z,95080
2018-04-29T04:21:28.188Z,95079
2018-04-29T04:23:57.191Z,95075
2018-04-29T04:26:26.259Z,95069
2018-04-29T04:28:55.275Z,95081
2018-04-29T04:31:24.328Z,95071
2018-04-29T04:33:53.781Z,95075
2018-04-29T04:36:22.788Z,95079
2018-04-29T04:38:51.804Z,95075
2018-04-29T04:41:20.878Z,95085
2018-04-29T04:43:49.896Z,95083
2018-04-29T04:46:18.928Z,95084
2018-04-29T04:48:48.053Z,95085
2018-04-29T04:51:17.067Z,95082
2018-04-29T04:53:46.080Z,95086
2018-04-29T04:56:15.895Z,95084
2018-04-29T04:58:44.916Z,95091
2018-04-29T05:01:13.979Z,95089
2018-04-29T05:03:43.771Z,95095
2018-04-29T05:06:12.807Z,95091
2018-04-29T05:08:41.825Z,95093
2018-04-29T05:11:10.840Z,95095
2018-04-29T05:13:39.929Z,95095
2018-04-29T05:16:08.972Z,95098
2018-04-29T05:18:38.753Z,95097
2018-04-29T05:21:07.800Z,95098
2018-04-29T05:23:36.808Z,95101
2018-04-29T05:26:05.888Z,95112
2018-04-29T05:28:34.900Z,95112
2018-04-29T05:31:03.916Z,95104
2018-04-29T05:33:32.970Z,95111
2018-04-29T05:36:01.974Z,95121
2018-04-29T05:38:31.185Z,95114
2018-04-29T05:41:00.213Z,95107
2018-04-29T05:43:29.205Z,95102
2018-04-29T05:45:59.044Z,95103
2018-04-29T05:48:28.046Z,95101
2018-04-29T05:50:57.067Z,95096
2018-04-29T05:53:26.117Z,95098
2018-04-29T05:55:55.156Z,95102
2018-04-29T05:58:24.192Z,95101
2018-04-29T06:00:54.003Z,95092
2018-04-29T06:03:23.008Z,95088
2018-04-29T06:05:52.127Z,95089
2018-04-29T06:08:21.148Z,95089
2018-04-29T06:10:50.192Z,95082
2018-04-29T06:15:49.823Z,95083
2018-04-29T06:18:18.852Z,95081
2018-04-29T06:20:47.868Z,95080
2018-04-29T06:23:16.931Z,95070
2018-04-29T06:25:45.951Z,95064
2018-04-29T06:28:14.963Z,95064
2018-04-29T06:30:44.779Z,95054
2018-04-29T06:33:13.787Z,95056
2018-04-29T06:35:42.830Z,95061
2018-04-29T06:38:11.841Z,95061
2018-04-29T06:40:40.908Z,95048
2018-04-29T06:43:09.911Z,95054
2018-04-29T06:45:38.920Z,95056
2018-04-29T06:48:08.007Z,95054
2018-04-29T06:50:37.058Z,95044
2018-04-29T06:53:06.074Z,95050
2018-04-29T06:55:35.127Z,95043
2018-04-29T06:58:04.210Z,95040
2018-04-29T07:00:33.181Z,95036
2018-04-29T07:03:02.204Z,95038
2018-04-29T07:05:31.288Z,95027
2018-04-29T07:08:00.312Z,95025
2018-04-29T07:10:29.345Z,95025
2018-04-29T07:12:58.394Z,95015
2018-04-29T07:15:27.431Z,95023
2018-04-29T07:17:56.456Z,95016
2018-04-29T07:20:25.496Z,95018
2018-04-29T07:22:54.505Z,95016
2018-04-29T07:25:23.536Z,95020
2018-04-29T07:27:53.380Z,95017
2018-04-29T07:30:22.386Z,95010
2018-04-29T07:32:51.415Z,95013
2018-04-29T07:35:20.463Z,95019
2018-04-29T07:37:49.479Z,95021
2018-04-29T07:40:19.520Z,95021
2018-04-29T07:42:49.245Z,94962
2018-04-29T07:45:18.344Z,94927
2018-04-29T07:47:47.955Z,95012
2018-04-29T07:50:17.031Z,95007
2018-04-29T07:52:46.057Z,95017
2018-04-29T07:55:15.867Z,95011
2018-04-29T07:57:44.940Z,95010
2018-04-29T08:00:14.055Z,95018
2018-04-29T08:02:43.055Z,95015
2018-04-29T08:05:13.231Z,95014
2018-04-29T08:07:42.608Z,95005
2018-04-29T08:10:12.960Z,95001
2018-04-29T08:12:42.823Z,95000
2018-04-29T08:15:11.878Z,94993
2018-04-29T08:17:40.893Z,94992
2018-04-29T08:20:10.743Z,94997
2018-04-29T08:22:39.779Z,94992
2018-04-29T08:25:08.797Z,94999
2018-04-29T08:27:37.947Z,94995
2018-04-29T08:30:07.057Z,94999
2018-04-29T08:32:35.999Z,94993
2018-04-29T08:35:05.061Z,94993
2018-04-29T08:37:34.064Z,94992
2018-04-29T08:40:03.835Z,94990
2018-04-29T08:42:32.880Z,94976
2018-04-29T08:45:02.658Z,94970
2018-04-29T08:47:31.721Z,94979
2018-04-29T08:50:00.731Z,94973
2018-04-29T08:52:29.747Z,94967
2018-04-29T08:54:58.871Z,94958
2018-04-29T08:57:27.834Z,94957
2018-04-29T08:59:57.575Z,94961
2018-04-29T09:02:26.630Z,94961
2018-04-29T09:04:55.928Z,94959
2018-04-29T09:07:25.080Z,94964
2018-04-29T09:09:54.159Z,94954
2018-04-29T09:12:23.977Z,94952
2018-04-29T09:14:53.783Z,94951
2018-04-29T09:17:22.824Z,94958
2018-04-29T09:19:51.879Z,94954
2018-04-29T09:22:20.968Z,94956
2018-04-29T09:24:50.779Z,94957
2018-04-29T09:27:20.559Z,94954
2018-04-29T09:29:49.610Z,94961
2018-04-29T09:32:18.614Z,94946
2018-04-29T09:34:47.672Z,94954
2018-04-29T09:37:17.500Z,94947
2018-04-29T09:39:46.497Z,94948
2018-04-29T09:42:15.510Z,94935
2018-04-29T09:44:44.572Z,94934
2018-04-29T09:47:14.351Z,94948
2018-04-29T09:49:43.359Z,94946
2018-04-29T09:52:12.402Z,94942
2018-04-29T09:54:42.067Z,94940
2018-04-29T09:57:11.108Z,94932
2018-04-29T09:59:40.968Z,94937
2018-04-29T10:02:11.510Z,94928
2018-04-29T10:04:41.315Z,94928
2018-04-29T10:07:11.112Z,94918
2018-04-29T10:09:40.197Z,94829
2018-04-29T10:12:09.242Z,94909
2018-04-29T10:14:39.033Z,94908
2018-04-29T10:17:08.124Z,94905
2018-04-29T10:19:37.935Z,94901
2018-04-29T10:22:07.777Z,94902
2018-04-29T10:24:36.849Z,94905
2018-04-29T10:27:06.650Z,94903
2018-04-29T10:29:40.726Z,94896
2018-04-29T10:32:09.750Z,94892
2018-04-29T10:34:38.807Z,94887
2018-04-29T10:37:07.832Z,94882
2018-04-29T10:39:36.911Z,94878
2018-04-29T10:42:05.924Z,94881
2018-04-29T10:44:34.932Z,94876
2018-04-29T10:47:04.004Z,94873
2018-04-29T10:49:33.049Z,94871
2018-04-29T10:52:02.160Z,94861
2018-04-29T10:54:33.218Z,94861
2018-04-29T10:57:02.233Z,94852
2018-04-29T10:59:34.864Z,94850
2018-04-29T11:02:04.539Z,94844
2018-04-29T11:04:33.559Z,94849
2018-04-29T11:07:02.669Z,94840
2018-04-29T11:09:31.685Z,94838
2018-04-29T11:12:00.713Z,94834
2018-04-29T11:14:29.804Z,94839
2018-04-29T11:16:58.846Z,94835
2018-04-29T11:19:27.867Z,94837
2018-04-29T11:21:56.991Z,94829
2018-04-29T11:24:27.309Z,94833
2018-04-29T11:26:56.766Z,94835
2018-04-29T11:29:25.787Z,94831
2018-04-29T11:31:55.001Z,94827
2018-04-29T11:34:25.447Z,94827
2018-04-29T11:36:55.702Z,94826
2018-04-29T11:39:24.883Z,94831
2018-04-29T11:41:56.244Z,94819
2018-04-29T11:44:25.375Z,94812
2018-04-29T11:46:54.677Z,94812
2018-04-29T11:49:24.660Z,94814
2018-04-29T11:51:54.137Z,94805
2018-04-29T11:54:23.177Z,94796
2018-04-29T11:56:52.287Z,94799
2018-04-29T11:59:22.967Z,94795
2018-04-29T12:01:52.021Z,94793
2018-04-29T12:04:21.044Z,94797
2018-04-29T12:06:53.355Z,94790
2018-04-29T12:09:22.427Z,94786
2018-04-29T12:11:51.589Z,94795
2018-04-29T12:14:20.885Z,94664
2018-04-29T12:16:50.978Z,94788
2018-04-29T12:19:20.266Z,94788
2018-04-29T12:21:49.335Z,94786
2018-04-29T12:24:18.360Z,94785
2018-04-29T12:26:48.570Z,94773
2018-04-29T12:29:17.668Z,94779
2018-04-29T12:31:46.635Z,94783
2018-04-29T12:34:15.647Z,94769
2018-04-29T12:36:44.703Z,94770
2018-04-29T12:39:13.739Z,94770
2018-04-29T12:41:42.755Z,94763
2018-04-29T12:44:11.768Z,94761
2018-04-29T12:46:40.843Z,94762
2018-04-29T12:49:09.865Z,94770
2018-04-29T12:51:39.012Z,94750
2018-04-29T12:54:08.203Z,94756
2018-04-29T12:56:37.229Z,94756
2018-04-29T12:59:06.857Z,94754
2018-04-29T13:01:35.878Z,94751
2018-04-29T13:04:05.899Z,94733
2018-04-29T13:06:34.911Z,94725
2018-04-29T13:09:03.947Z,94727
2018-04-29T13:11:33.013Z,94715
2018-04-29T13:14:02.148Z,94719
2018-04-29T13:16:31.293Z,94710
2018-04-29T13:19:00.297Z,94698
2018-04-29T13:21:29.400Z,94698
2018-04-29T13:23:58.364Z,94691
2018-04-29T13:26:27.852Z,94695
2018-04-29T13:28:56.884Z,94680
2018-04-29T13:31:26.363Z,94674
2018-04-29T13:33:55.464Z,94667
2018-04-29T13:36:25.337Z,94667
2018-04-29T13:38:54.411Z,94660
2018-04-29T13:41:24.296Z,94649
2018-04-29T13:43:53.537Z,94653
2018-04-29T13:46:23.800Z,94593
2018-04-29T13:48:52.908Z,94638
2018-04-29T13:51:21.977Z,94633
2018-04-29T13:53:51.487Z,94631
2018-04-29T13:56:21.445Z,94624
2018-04-29T13:58:51.418Z,94636
2018-04-29T14:01:20.433Z,94622
2018-04-29T14:03:50.433Z,94617
2018-04-29T14:06:19.841Z,94607
2018-04-29T14:08:51.653Z,94609
2018-04-29T14:11:20.854Z,94600
2018-04-29T14:13:50.859Z,94605
2018-04-29T14:16:21.582Z,94603
2018-04-29T14:18:51.168Z,94599
2018-04-29T14:21:20.398Z,94588
2018-04-29T14:23:50.976Z,94586
2018-04-29T14:26:19.991Z,94584
2018-04-29T14:28:49.037Z,94577
2018-04-29T14:31:19.830Z,94574
2018-04-29T14:33:48.859Z,94572
2018-04-29T14:36:18.635Z,94582
2018-04-29T14:38:48.012Z,94563
2018-04-29T14:41:17.035Z,94250
2018-04-29T14:43:46.375Z,94574
2018-04-29T14:46:18.956Z,94563
2018-04-29T14:48:49.380Z,94560
2018-04-29T14:51:19.337Z,94563
2018-04-29T14:53:49.528Z,94552
2018-04-29T14:56:18.541Z,94548
2018-04-29T14:58:48.010Z,94539
2018-04-29T15:01:17.191Z,94539
2018-04-29T15:03:46.228Z,94543
2018-04-29T15:06:15.243Z,94540
2018-04-29T15:08:44.296Z,94536
2018-04-29T15:11:13.436Z,94525
2018-04-29T15:13:43.259Z,94523
2018-04-29T15:16:13.318Z,94512
2018-04-29T15:19:00.071Z,94503
2018-04-29T15:21:30.045Z,94501
2018-04-29T15:23:59.057Z,94499
2018-04-29T15:26:28.103Z,94495
2018-04-29T15:28:57.116Z,94494
2018-04-29T15:31:26.160Z,94495
2018-04-29T15:33:55.255Z,94480
2018-04-29T15:36:24.286Z,94478
2018-04-29T15:38:53.341Z,94476
2018-04-29T15:41:22.352Z,94476
2018-04-29T15:43:51.667Z,94477
2018-04-29T15:46:21.075Z,94471
2018-04-29T15:48:50.121Z,94471
2018-04-29T15:51:19.947Z,94470
2018-04-29T15:53:49.466Z,94453
2018-04-29T15:56:18.480Z,94448
2018-04-29T15:58:47.519Z,94446
2018-04-29T16:01:17.290Z,94451
2018-04-29T16:03:46.368Z,94443
2018-04-29T16:06:15.375Z,94437
2018-04-29T16:08:44.857Z,94434
2018-04-29T16:11:13.908Z,94434
2018-04-29T16:13:42.921Z,94433
2018-04-29T16:16:11.957Z,94422
2018-04-29T16:18:40.995Z,94413
2018-04-29T16:21:10.815Z,94422
2018-04-29T16:23:39.879Z,94412
2018-04-29T16:26:10.044Z,94408
2018-04-29T16:28:39.191Z,94405
2018-04-29T16:31:08.253Z,94398
2018-04-29T16:33:37.270Z,94400
2018-04-29T16:36:06.631Z,94392
2018-04-29T16:38:36.544Z,94390
2018-04-29T16:41:06.408Z,94374
2018-04-29T16:43:35.481Z,94378
2018-04-29T16:46:04.476Z,94367
2018-04-29T16:48:33.569Z,94360
2018-04-29T16:51:06.938Z,94277
2018-04-29T16:53:35.971Z,94354
2018-04-29T16:56:05.012Z,94356
2018-04-29T16:58:34.173Z,94346
2018-04-29T17:01:03.224Z,94348
2018-04-29T17:03:33.292Z,94341
2018-04-29T17:06:02.374Z,94348
2018-04-29T17:08:31.531Z,94337
2018-04-29T17:11:00.650Z,94331
2018-04-29T17:13:29.823Z,94323
2018-04-29T17:15:58.851Z,94327
2018-04-29T17:18:29.696Z,94276
2018-04-29T17:20:59.184Z,94315
2018-04-29T17:23:28.907Z,94314
2018-04-29T17:25:57.945Z,94306
2018-04-29T17:28:27.121Z,94310
2018-04-29T17:31:03.260Z,94306
2018-04-29T17:33:33.980Z,94302
2018-04-29T17:36:03.047Z,94296
2018-04-29T17:38:33.222Z,94303
2018-04-29T17:41:03.402Z,94296
2018-04-29T17:43:34.755Z,94347
2018-04-29T17:46:05.040Z,94297
2018-04-29T17:48:34.938Z,94295
2018-04-29T17:51:03.993Z,94289
2018-04-29T17:53:34.139Z,94293
2018-04-29T17:56:03.293Z,94287
2018-04-29T17:58:41.417Z,94286
2018-04-29T18:01:10.507Z,94288
2018-04-29T18:03:39.646Z,94289
2018-04-29T18:06:08.748Z,94278
2018-04-29T18:08:37.846Z,94281
2018-04-29T18:11:06.894Z,94280
2018-04-29T18:13:35.939Z,94277
2018-04-29T18:16:04.990Z,94273
2018-04-29T18:18:33.996Z,94269
2018-04-29T18:21:03.072Z,94269
2018-04-29T18:23:36.251Z,94302
2018-04-29T18:26:05.312Z,94262
2018-04-29T18:28:34.375Z,94271
2018-04-29T18:31:03.427Z,94300
2018-04-29T18:33:33.232Z,94260
2018-04-29T18:36:03.136Z,94262
2018-04-29T18:38:33.511Z,94257
2018-04-29T18:41:02.529Z,94259
2018-04-29T18:43:31.589Z,94251
2018-04-29T18:46:00.604Z,94255
2018-04-29T18:48:29.672Z,94247
2018-04-29T18:50:58.853Z,94250
2018-04-29T18:53:27.767Z,94248
2018-04-29T18:55:57.797Z,94239
2018-04-29T18:58:27.031Z,94246
2018-04-29T19:00:57.930Z,94245
2018-04-29T19:03:27.092Z,94237
2018-04-29T19:06:00.076Z,94232
2018-04-29T19:08:29.184Z,94232
2018-04-29T19:10:58.270Z,94232
2018-04-29T19:13:27.318Z,94224
2018-04-29T19:15:56.335Z,94227
2018-04-29T19:18:25.804Z,94229
2018-04-29T19:20:54.823Z,94217
2018-04-29T19:23:23.888Z,94222
2018-04-29T19:25:52.932Z,94223
2018-04-29T19:28:22.742Z,94218
2018-04-29T19:30:51.752Z,94215
2018-04-29T19:33:20.913Z,94216
2018-04-29T19:35:49.936Z,94217
2018-04-29T19:38:19.736Z,94213
2018-04-29T19:40:48.757Z,94210
2018-04-29T19:43:17.795Z,94213
2018-04-29T19:45:46.802Z,94216
2018-04-29T19:48:16.016Z,94201
2018-04-29T19:50:45.826Z,94201
2018-04-29T19:53:14.905Z,94206
2018-04-29T19:55:44.047Z,94197
2018-04-29T19:58:13.272Z,94203
2018-04-29T20:00:43.887Z,94194
2018-04-29T20:03:12.938Z,94204
2018-04-29T20:05:42.982Z,94187
2018-04-29T20:08:12.138Z,94188
2018-04-29T20:10:41.150Z,94196
2018-04-29T20:13:11.347Z,94187
2018-04-29T20:15:40.519Z,94199
2018-04-29T20:18:09.704Z,94167
2018-04-29T20:20:38.794Z,94163
2018-04-29T20:23:07.895Z,94163
2018-04-29T20:25:37.781Z,94158
2018-04-29T20:28:07.204Z,94161
2018-04-29T20:30:36.327Z,94156
2018-04-29T20:33:06.149Z,94163
2018-04-29T20:35:37.203Z,94159
2018-04-29T20:38:06.212Z,94154
2018-04-29T20:40:35.277Z,94161
2018-04-29T20:43:04.360Z,94161
2018-04-29T20:45:33.377Z,94154
2018-04-29T20:48:02.469Z,94146
2018-04-29T20:50:31.477Z,94152
2018-04-29T20:53:00.553Z,94143
2018-04-29T20:55:29.667Z,94132
2018-04-29T20:57:59.464Z,94130
2018-04-29T21:00:28.556Z,94128
2018-04-29T21:02:58.343Z,94120
2018-04-29T21:05:27.516Z,94122
2018-04-29T21:07:56.540Z,94111
2018-04-29T21:10:25.540Z,94109
2018-04-29T21:12:54.585Z,94101
2018-04-29T21:15:23.595Z,94105
2018-04-29T21:17:52.675Z,94110
2018-04-29T21:20:21.727Z,94105
2018-04-29T21:22:50.766Z,94112
2018-04-29T21:25:19.772Z,94106
2018-04-29T21:27:48.850Z,94106
2018-04-29T21:30:17.863Z,94115
2018-04-29T21:32:46.901Z,94106
2018-04-29T21:35:15.968Z,94101
2018-04-29T21:37:45.004Z,94098
2018-04-29T21:40:14.047Z,94102
2018-04-29T21:42:43.098Z,94096
2018-04-29T21:45:12.904Z,94089
2018-04-29T21:47:42.742Z,94094
2018-04-29T21:50:11.799Z,94088
2018-04-29T21:52:41.619Z,94088
2018-04-29T21:55:12.098Z,94083
2018-04-29T21:57:41.104Z,94074
2018-04-29T22:00:11.120Z,94074
2018-04-29T22:02:40.143Z,94065
2018-04-29T22:05:09.235Z,94081
2018-04-29T22:07:38.244Z,94086
2018-04-29T22:10:08.052Z,94082
2018-04-29T22:12:37.126Z,94089
2018-04-29T22:15:06.151Z,94077
2018-04-29T22:17:35.236Z,94083
2018-04-29T22:20:05.071Z,94087
2018-04-29T22:22:34.419Z,94095
2018-04-29T22:25:03.853Z,94070
2018-04-29T22:27:32.935Z,94077
2018-04-29T22:30:01.944Z,94087
2018-04-29T22:32:31.724Z,94083
2018-04-29T22:35:00.797Z,94088
2018-04-29T22:37:29.807Z,94085
2018-04-29T22:39:58.840Z,94077
2018-04-29T22:42:27.843Z,94078
2018-04-29T22:44:56.913Z,94089
2018-04-29T22:47:25.927Z,94093
2018-04-29T22:49:54.980Z,94081
2018-04-29T22:52:24.050Z,94076
2018-04-29T22:54:53.096Z,94089
2018-04-29T22:57:22.873Z,94094
2018-04-29T22:59:51.907Z,94094
2018-04-29T23:02:20.919Z,94095
2018-04-29T23:04:49.954Z,94088
2018-04-29T23:07:18.978Z,94091
2018-04-29T23:09:48.786Z,94082
2018-04-29T23:12:18.578Z,94080
2018-04-29T23:14:47.618Z,94090
2018-04-29T23:17:16.637Z,94092
2018-04-29T23:19:45.684Z,94094
2018-04-29T23:22:14.708Z,94087
2018-04-29T23:24:43.748Z,94098
2018-04-29T23:27:12.770Z,94086
2018-04-29T23:29:41.807Z,94092
2018-04-29T23:32:10.827Z,94101
2018-04-29T23:34:39.945Z,94103
2018-04-29T23:37:08.913Z,94095
2018-04-29T23:39:37.948Z,94090
2018-04-29T23:42:06.973Z,94096
2018-04-29T23:44:36.031Z,94100
2018-04-29T23:47:05.039Z,94116
2018-04-29T23:49:34.087Z,94120
2018-04-29T23:52:03.540Z,94105
2018-04-29T23:54:32.575Z,94115
2018-04-29T23:57:01.600Z,94099
2018-04-29T23:59:30.668Z,94086
